Impacts METAR Board
IDs:

KIAH - Houston/Bush Intl, TX, US

Updated at: 0200 UTC 23 Oct 2018
Potential Impact None Slight Moderate High
Time 22/14Z 22/15Z 22/16Z 22/17Z 22/18Z 22/19Z 22/20Z 22/21Z 22/22Z 22/23Z 23/00Z 23/01Z 23/02Z
Temp54 55 57 60 63 64 64 65 64 63 62 61 61
Dewpt46 47 48 50 52 52 53 52 55 55 54 55 55
Altim30.18 30.21 30.21 30.19 30.17 30.15 30.13 30.13 30.13 30.13 30.13 30.14 30.16
VIS10 10 10 10 10 10 10 10 10 10 10 10 10
CIG180 160 170 160 140 110 140 160 160 150 110 110 110
CoverOVCOVCOVCOVCOVCOVCOVCOVCOVCOVCOVCOVCOVC
FltCatVFRVFRVFRVFRVFRVFRVFRVFRVFRVFRVFRVFRVFR
WX--------------------------
WDir50040360103010201020301010
WSpd6 3 4 3 6 6 6 5 9 8 7 7 8
WGst-- -- -- -- -- -- -- -- -- -- -- -- --
Raw hourly METARs
KIAH 221353Z 05006KT 10SM BKN180 OVC250 12/08 A3018 RMK AO2 SLP220 T01220078
KIAH 221453Z VRB03KT 10SM BKN160 OVC250 13/08 A3021 RMK AO2 SLP230 T01280083 53016
KIAH 221553Z 04004KT 10SM SCT120 BKN170 OVC250 14/09 A3021 RMK AO2 SLP228 T01390089
KIAH 221653Z 36003KT 10SM BKN160 OVC250 16/10 A3019 RMK AO2 SLP224 VIRGA N-NE T01560100
KIAH 221753Z 01006KT 10SM BKN140 OVC250 17/11 A3017 RMK AO2 SLP215 VIRGA DSNT W-NW T01720111 10172 20106 58015
KIAH 221853Z 03006KT 10SM BKN110 OVC160 18/11 A3015 RMK AO2 SLP209 VIRGA DSNT ALQDS T01780111
KIAH 221953Z 01006KT 10SM SCT110 OVC140 18/12 A3013 RMK AO2 SLP203 VIRGA OHD T01780117
KIAH 222053Z 02005KT 10SM SCT120 OVC160 18/11 A3013 RMK AO2 SLP202 T01830111 56013
KIAH 222153Z 01009KT 10SM SCT110 OVC160 18/13 A3013 RMK AO2 SLP201 T01780128
KIAH 222253Z 02008KT 10SM SCT110 OVC150 17/13 A3013 RMK AO2 SLP201 T01720128
KIAH 222353Z 03007KT 10SM BKN110 OVC150 17/12 A3013 RMK AO2 SLP204 T01670122 10183 20167 53001
KIAH 230053Z 01007KT 10SM BKN110 OVC140 16/13 A3014 RMK AO2 SLP208 T01610128
KIAH 230153Z 01008KT 10SM BKN110 OVC140 16/13 A3016 RMK AO2 SLP211 T01610128



Page loaded:  02:57 UTC  |   07:57 PM Pacific  |   08:57 PM Mountain  |   09:57 PM Central  |   10:57 PM Eastern

 

ADVISORIES

FORECASTS

FORECASTS

OBSERVATIONS

USER TOOLS

ABOUT US